createdAt,value
2023-02-12T00:01:08.824Z,11.43
2023-02-12T00:03:37.330Z,12.03
2023-02-12T00:06:06.185Z,11.87
2023-02-12T00:08:34.685Z,13.40
2023-02-12T00:11:10.965Z,18.03
2023-02-12T00:13:39.621Z,14.97
2023-02-12T00:16:09.559Z,26.20
2023-02-12T00:18:38.040Z,36.70
2023-02-12T00:21:08.791Z,30.67
2023-02-12T00:23:37.029Z,27.57
2023-02-12T00:26:07.608Z,25.43
2023-02-12T00:28:37.340Z,16.73
2023-02-12T00:31:10.820Z,12.47
2023-02-12T00:33:39.298Z,12.67
2023-02-12T00:36:08.464Z,12.67
2023-02-12T00:38:36.990Z,11.87
2023-02-12T00:41:05.307Z,12.20
2023-02-12T00:43:33.345Z,11.90
2023-02-12T00:46:02.897Z,11.43
2023-02-12T00:48:30.969Z,12.60
2023-02-12T00:50:59.089Z,12.57
2023-02-12T00:53:27.345Z,12.33
2023-02-12T00:55:55.900Z,12.33
2023-02-12T00:58:24.624Z,12.13
2023-02-12T01:00:52.774Z,12.63
2023-02-12T01:03:22.819Z,11.77
2023-02-12T01:05:50.903Z,11.43
2023-02-12T01:08:19.031Z,12.07
2023-02-12T01:10:47.118Z,12.40
2023-02-12T01:13:16.405Z,11.83
2023-02-12T01:15:44.513Z,12.43
2023-02-12T01:18:12.592Z,12.27
2023-02-12T01:20:42.002Z,12.37
2023-02-12T01:23:10.089Z,12.57
2023-02-12T01:25:39.857Z,14.67
2023-02-12T01:28:07.910Z,14.63
2023-02-12T01:30:36.003Z,14.27
2023-02-12T01:33:04.140Z,14.73
2023-02-12T01:35:32.169Z,13.50
2023-02-12T01:38:01.665Z,13.27
2023-02-12T01:40:29.742Z,12.93
2023-02-12T01:43:01.100Z,20.50
2023-02-12T01:45:48.047Z,22.00
2023-02-12T01:48:18.100Z,21.63
2023-02-12T01:50:48.427Z,22.10
2023-02-12T01:53:20.395Z,21.30
2023-02-12T01:55:56.866Z,22.80
2023-02-12T01:58:27.801Z,21.77
2023-02-12T02:00:56.066Z,20.87
2023-02-12T02:03:24.543Z,20.57
2023-02-12T02:05:59.080Z,19.53
2023-02-12T02:08:28.890Z,18.80
2023-02-12T02:10:56.954Z,15.63
2023-02-12T02:13:42.470Z,14.53
2023-02-12T02:16:19.409Z,14.00
2023-02-12T02:18:54.222Z,13.70
2023-02-12T02:21:58.829Z,15.10
2023-02-12T02:25:03.557Z,14.10
2023-02-12T02:27:43.533Z,14.47
2023-02-12T02:30:28.101Z,13.90
2023-02-12T02:33:02.163Z,15.40
2023-02-12T02:35:39.028Z,16.33
2023-02-12T02:38:20.726Z,13.43
2023-02-12T02:40:54.385Z,14.13
2023-02-12T02:43:29.185Z,15.17
2023-02-12T02:46:06.772Z,15.07
2023-02-12T02:48:38.749Z,13.53
2023-02-12T02:51:13.164Z,14.20
2023-02-12T02:53:45.396Z,15.43
2023-02-12T02:56:17.923Z,13.87
2023-02-12T02:58:50.604Z,14.97
2023-02-12T03:06:45.194Z,14.07
2023-02-12T03:09:17.866Z,14.07
2023-02-12T03:11:46.454Z,14.03
2023-02-12T03:14:20.123Z,14.50
2023-02-12T03:16:55.816Z,14.50
2023-02-12T03:19:28.222Z,13.73
2023-02-12T03:22:02.839Z,12.97
2023-02-12T03:24:37.173Z,13.33
2023-02-12T03:27:11.008Z,12.77
2023-02-12T03:29:39.397Z,14.03
2023-02-12T03:32:21.963Z,12.90
2023-02-12T03:34:55.227Z,13.57
2023-02-12T03:37:30.431Z,12.80
2023-02-12T03:40:06.240Z,13.97
2023-02-12T03:42:47.412Z,13.63
2023-02-12T03:45:31.325Z,14.23
2023-02-12T03:48:08.218Z,13.47
2023-02-12T03:50:44.188Z,12.70
2023-02-12T03:53:13.742Z,13.10
2023-02-12T03:55:44.826Z,12.87
2023-02-12T03:58:20.163Z,13.63
2023-02-12T04:00:48.582Z,13.50
2023-02-12T04:03:16.785Z,12.77
2023-02-12T04:05:44.939Z,12.87
2023-02-12T04:08:15.580Z,13.13
2023-02-12T04:18:35.160Z,11.07
2023-02-12T04:21:12.547Z,13.17
2023-02-12T04:23:51.550Z,12.90
2023-02-12T04:26:28.149Z,13.43
2023-02-12T04:29:06.502Z,12.17
2023-02-12T04:31:39.548Z,12.13
2023-02-12T04:34:15.860Z,12.70
2023-02-12T04:36:49.316Z,12.73
2023-02-12T04:39:23.068Z,12.50
2023-02-12T04:41:51.702Z,12.70
2023-02-12T04:44:24.411Z,11.97
2023-02-12T04:46:53.263Z,12.30
2023-02-12T04:49:22.677Z,11.73
2023-02-12T04:51:51.791Z,12.30
2023-02-12T04:54:23.195Z,12.77
2023-02-12T04:56:51.709Z,11.97
2023-02-12T04:59:19.771Z,13.23
2023-02-12T05:01:48.012Z,12.50
2023-02-12T05:04:17.711Z,12.77
2023-02-12T05:06:46.653Z,11.90
2023-02-12T05:09:17.478Z,11.70
2023-02-12T05:11:47.195Z,11.67
2023-02-12T05:14:15.466Z,11.77
2023-02-12T05:16:43.818Z,10.90
2023-02-12T05:19:12.238Z,11.93
2023-02-12T05:21:40.332Z,11.03
2023-02-12T05:24:08.886Z,12.20
2023-02-12T05:26:37.422Z,12.03
2023-02-12T05:29:06.925Z,12.03
2023-02-12T05:31:35.269Z,11.17
2023-02-12T05:34:03.800Z,12.23
2023-02-12T05:36:31.817Z,12.97
2023-02-12T05:39:01.210Z,11.93
2023-02-12T05:41:29.342Z,11.20
2023-02-12T05:43:57.385Z,11.50
2023-02-12T05:46:26.868Z,11.10
2023-02-12T05:48:55.242Z,11.57
2023-02-12T05:51:25.198Z,12.10
2023-02-12T05:53:56.845Z,11.57
2023-02-12T05:56:26.764Z,11.90
2023-02-12T05:58:57.062Z,11.73
2023-02-12T06:01:28.716Z,12.23
2023-02-12T06:03:57.284Z,11.07
2023-02-12T06:06:27.001Z,11.50
2023-02-12T06:08:55.252Z,12.90
2023-02-12T06:11:23.504Z,10.77
2023-02-12T06:13:51.963Z,11.10
2023-02-12T06:16:22.580Z,12.13
2023-02-12T06:18:52.826Z,11.87
2023-02-12T06:21:22.303Z,11.33
2023-02-12T06:23:50.952Z,12.20
2023-02-12T06:26:19.452Z,11.90
2023-02-12T06:28:47.759Z,12.23
2023-02-12T06:31:21.380Z,12.50
2023-02-12T06:33:52.114Z,12.70
2023-02-12T06:36:20.732Z,12.40
2023-02-12T06:38:49.346Z,13.27
2023-02-12T06:41:17.810Z,12.43
2023-02-12T06:43:46.190Z,12.10
2023-02-12T06:46:14.571Z,12.07
2023-02-12T06:48:42.765Z,13.13
2023-02-12T06:51:14.145Z,12.70
2023-02-12T06:53:42.344Z,11.73
2023-02-12T06:56:13.252Z,13.17
2023-02-12T06:58:43.153Z,14.20
2023-02-12T07:01:13.853Z,12.43
2023-02-12T07:03:42.441Z,13.87
2023-02-12T07:06:12.074Z,13.27
2023-02-12T07:08:40.506Z,14.20
2023-02-12T07:11:08.929Z,13.33
2023-02-12T07:13:37.193Z,11.97
2023-02-12T07:16:07.104Z,12.93
2023-02-12T07:18:35.546Z,13.83
2023-02-12T07:21:04.311Z,13.37
2023-02-12T07:23:34.494Z,13.23
2023-02-12T07:26:04.714Z,13.37
2023-02-12T07:28:33.786Z,13.83
2023-02-12T07:31:06.926Z,13.27
2023-02-12T07:33:35.232Z,12.57
2023-02-12T07:36:03.452Z,13.40
2023-02-12T07:38:33.927Z,13.70
2023-02-12T07:41:10.593Z,14.53
2023-02-12T07:43:39.583Z,14.20
2023-02-12T07:46:12.970Z,14.40
2023-02-12T07:48:41.474Z,13.90
2023-02-12T07:51:12.224Z,13.17
2023-02-12T07:53:42.150Z,13.30
2023-02-12T07:56:12.129Z,13.80
2023-02-12T07:58:41.996Z,15.13
2023-02-12T08:01:14.882Z,16.23
2023-02-12T08:03:43.252Z,15.93
2023-02-12T08:06:13.256Z,14.73
2023-02-12T08:08:42.749Z,14.27
2023-02-12T08:11:12.749Z,14.93
2023-02-12T08:13:41.606Z,13.83
2023-02-12T08:16:12.144Z,13.93
2023-02-12T08:18:40.453Z,14.23
2023-02-12T08:21:10.686Z,14.60
2023-02-12T08:23:38.789Z,13.20
2023-02-12T08:26:13.911Z,13.90
2023-02-12T08:28:44.425Z,16.13
2023-02-12T08:31:14.815Z,14.77
2023-02-12T08:33:43.134Z,16.30
2023-02-12T08:36:12.739Z,14.77
2023-02-12T08:38:41.373Z,14.67
2023-02-12T08:41:12.641Z,14.47
2023-02-12T08:43:42.108Z,14.17
2023-02-12T08:46:12.312Z,14.73
2023-02-12T08:48:41.080Z,14.97
2023-02-12T08:51:11.339Z,14.10
2023-02-12T08:53:41.210Z,14.50
2023-02-12T08:56:11.712Z,13.93
2023-02-12T08:58:40.106Z,14.40
2023-02-12T09:01:12.882Z,14.97
2023-02-12T09:03:41.046Z,13.00
2023-02-12T09:06:10.021Z,13.33
2023-02-12T09:08:39.393Z,13.67
2023-02-12T09:11:09.607Z,12.20
2023-02-12T09:13:40.037Z,13.47
2023-02-12T09:16:09.289Z,12.77
2023-02-12T09:18:38.269Z,12.80
2023-02-12T09:21:08.631Z,13.27
2023-02-12T09:23:37.245Z,13.13
2023-02-12T09:26:06.097Z,11.80
2023-02-12T09:28:34.462Z,12.67
2023-02-12T09:31:08.188Z,12.47
2023-02-12T09:33:36.660Z,12.30
2023-02-12T09:36:06.048Z,12.17
2023-02-12T09:38:34.240Z,12.73
2023-02-12T09:41:41.972Z,13.13
2023-02-12T09:44:18.663Z,12.77
2023-02-12T09:46:54.247Z,12.20
2023-02-12T09:49:46.063Z,12.30
2023-02-12T09:52:19.053Z,13.30
2023-02-12T09:54:47.673Z,12.10
2023-02-12T09:57:20.453Z,11.90
2023-02-12T09:59:53.614Z,11.50
2023-02-12T10:02:24.899Z,12.73
2023-02-12T10:05:01.313Z,13.87
2023-02-12T10:07:58.061Z,12.80
2023-02-12T10:10:39.976Z,13.67
2023-02-12T10:13:13.341Z,12.17
2023-02-12T10:15:51.942Z,12.93
2023-02-12T10:18:45.148Z,12.30
2023-02-12T10:21:23.501Z,12.67
2023-02-12T10:24:15.328Z,12.80
2023-02-12T10:26:47.767Z,13.03
2023-02-12T10:29:20.072Z,12.53
2023-02-12T10:31:51.740Z,13.47
2023-02-12T10:34:24.858Z,12.63
2023-02-12T10:36:56.623Z,12.37
2023-02-12T10:39:27.392Z,12.67
2023-02-12T10:42:00.392Z,13.37
2023-02-12T10:44:29.088Z,12.60
2023-02-12T10:46:57.198Z,12.63
2023-02-12T10:49:26.929Z,11.83
2023-02-12T10:52:12.760Z,12.10
2023-02-12T10:54:43.845Z,13.57
2023-02-12T10:57:20.515Z,12.10
2023-02-12T10:59:50.560Z,12.47
2023-02-12T11:02:31.494Z,12.30
2023-02-12T11:05:17.443Z,13.43
2023-02-12T11:07:50.082Z,13.40
2023-02-12T11:10:22.698Z,13.87
2023-02-12T11:12:50.852Z,13.87
2023-02-12T11:15:21.333Z,13.07
2023-02-12T11:17:58.825Z,13.73
2023-02-12T11:20:30.659Z,11.93
2023-02-12T11:23:00.848Z,12.87
2023-02-12T11:25:31.096Z,12.47
2023-02-12T11:28:05.978Z,12.23
2023-02-12T11:30:35.167Z,12.07
2023-02-12T11:33:28.279Z,13.50
2023-02-12T11:36:00.835Z,12.70
2023-02-12T11:38:35.282Z,12.70
2023-02-12T11:41:20.067Z,12.60
2023-02-12T11:43:48.323Z,13.60
2023-02-12T11:46:22.677Z,12.07
2023-02-12T11:48:52.256Z,11.07
2023-02-12T11:51:26.571Z,11.90
2023-02-12T11:53:57.275Z,12.53
2023-02-12T11:56:25.429Z,12.27
2023-02-12T11:58:53.949Z,12.53
2023-02-12T12:01:25.744Z,12.00
2023-02-12T12:04:00.674Z,12.23
2023-02-12T12:06:37.431Z,12.67
2023-02-12T12:09:11.528Z,13.27
2023-02-12T12:11:48.020Z,13.90
2023-02-12T12:14:25.429Z,13.17
2023-02-12T12:17:25.282Z,12.90
2023-02-12T12:20:00.677Z,13.57
2023-02-12T12:22:41.797Z,13.50
2023-02-12T12:25:17.474Z,12.43
2023-02-12T12:28:08.257Z,13.03
2023-02-12T12:30:58.156Z,12.17
2023-02-12T12:33:34.921Z,11.83
2023-02-12T12:36:46.125Z,11.93
2023-02-12T12:39:24.108Z,12.23
2023-02-12T12:42:23.831Z,14.03
2023-02-12T12:45:08.793Z,13.27
2023-02-12T12:47:49.045Z,11.87
2023-02-12T12:50:33.945Z,11.13
2023-02-12T12:53:15.796Z,11.47
2023-02-12T12:56:00.122Z,12.03
2023-02-12T12:58:41.035Z,11.60
2023-02-12T13:01:30.124Z,10.50
2023-02-12T13:04:29.736Z,11.83
2023-02-12T13:07:12.634Z,12.00
2023-02-12T13:09:52.970Z,11.50
2023-02-12T13:12:43.441Z,11.10
2023-02-12T13:15:26.684Z,11.70
2023-02-12T13:18:00.399Z,10.10
2023-02-12T13:20:38.759Z,11.13
2023-02-12T13:23:15.694Z,12.13
2023-02-12T13:25:53.431Z,12.50
2023-02-12T13:28:32.080Z,12.20
2023-02-12T13:31:02.713Z,10.80
2023-02-12T13:33:42.453Z,11.70
2023-02-12T13:36:14.265Z,12.60
2023-02-12T13:38:48.279Z,12.10
2023-02-12T13:41:19.355Z,12.17
2023-02-12T13:44:00.695Z,12.20
2023-02-12T13:46:35.762Z,11.63
2023-02-12T13:49:14.752Z,11.17
2023-02-12T13:51:46.140Z,10.27
2023-02-12T13:54:23.915Z,11.10
2023-02-12T13:56:54.135Z,11.80
2023-02-12T13:59:46.840Z,10.90
2023-02-12T14:02:44.458Z,11.20
2023-02-12T14:05:33.813Z,11.30
2023-02-12T14:08:05.650Z,11.80
2023-02-12T14:10:37.420Z,12.00
2023-02-12T14:13:19.175Z,11.20
2023-02-12T14:15:51.727Z,10.97
2023-02-12T14:18:29.719Z,11.07
2023-02-12T14:21:45.361Z,11.03
2023-02-12T14:24:52.534Z,12.97
2023-02-12T14:27:30.550Z,12.30
2023-02-12T14:30:04.316Z,11.93
2023-02-12T14:33:08.686Z,11.33
2023-02-12T14:35:39.782Z,11.97
2023-02-12T14:38:47.408Z,10.63
2023-02-12T14:41:37.593Z,11.33
2023-02-12T14:44:38.986Z,11.60
2023-02-12T14:47:14.475Z,11.77
2023-02-12T14:49:47.433Z,11.60
2023-02-12T14:52:22.004Z,12.13
2023-02-12T14:54:52.537Z,11.77
2023-02-12T14:57:28.153Z,11.50
2023-02-12T14:59:59.069Z,12.03
2023-02-12T15:02:29.194Z,11.43
2023-02-12T15:05:02.577Z,12.67
2023-02-12T15:07:38.453Z,11.20
2023-02-12T15:10:14.081Z,11.27
2023-02-12T15:12:46.979Z,10.33
2023-02-12T15:15:23.291Z,11.70
2023-02-12T15:17:58.139Z,10.93
2023-02-12T15:20:32.703Z,11.80
2023-02-12T15:23:03.115Z,12.27
2023-02-12T15:25:34.354Z,11.47
2023-02-12T15:28:05.577Z,11.33
2023-02-12T15:30:37.141Z,12.57
2023-02-12T15:33:07.426Z,11.47
2023-02-12T15:35:39.195Z,11.23
2023-02-12T15:38:09.638Z,11.83
2023-02-12T15:40:37.871Z,11.07
2023-02-12T15:43:07.711Z,11.27
2023-02-12T15:45:37.565Z,10.20
2023-02-12T15:48:14.534Z,11.57
2023-02-12T15:50:53.983Z,11.13
2023-02-12T15:53:25.363Z,11.33
2023-02-12T15:55:54.579Z,10.27
2023-02-12T15:58:26.625Z,11.67
2023-02-12T16:00:56.669Z,10.37
2023-02-12T16:03:27.720Z,10.50
2023-02-12T16:05:59.839Z,10.50
2023-02-12T16:08:30.550Z,11.83
2023-02-12T16:10:59.795Z,11.07
2023-02-12T16:13:32.419Z,11.50
2023-02-12T16:16:09.512Z,14.33
2023-02-12T16:18:38.914Z,11.10
2023-02-12T16:21:13.092Z,10.33
2023-02-12T16:23:44.210Z,11.17
2023-02-12T16:26:18.512Z,10.67
2023-02-12T16:28:49.347Z,10.93
2023-02-12T16:31:19.427Z,11.77
2023-02-12T16:33:52.635Z,11.60
2023-02-12T16:36:31.578Z,12.03
2023-02-12T16:39:02.957Z,12.00
2023-02-12T16:41:33.242Z,12.57
2023-02-12T16:44:27.171Z,12.83
2023-02-12T16:47:08.061Z,11.93
2023-02-12T16:49:36.112Z,13.47
2023-02-12T16:52:36.512Z,12.03
2023-02-12T16:55:07.571Z,11.93
2023-02-12T16:57:35.676Z,13.07
2023-02-12T17:00:04.643Z,12.53
2023-02-12T17:02:33.871Z,11.90
2023-02-12T17:05:02.561Z,11.80
2023-02-12T17:07:31.201Z,12.33
2023-02-12T17:09:59.340Z,13.10
2023-02-12T17:12:29.493Z,12.60
2023-02-12T17:14:57.630Z,12.97
2023-02-12T17:17:25.757Z,13.73
2023-02-12T17:19:53.862Z,13.30
2023-02-12T17:22:25.555Z,13.30
2023-02-12T17:24:54.737Z,13.57
2023-02-12T17:27:22.880Z,14.20
2023-02-12T17:29:52.624Z,14.13
2023-02-12T17:32:20.821Z,13.43
2023-02-12T17:34:49.398Z,14.17
2023-02-12T17:37:18.618Z,14.47
2023-02-12T17:39:46.879Z,14.93
2023-02-12T17:42:15.007Z,13.77
2023-02-12T17:44:43.145Z,14.43
2023-02-12T17:47:12.626Z,13.67
2023-02-12T17:49:41.991Z,13.30
2023-02-12T17:52:10.051Z,13.10
2023-02-12T17:54:38.540Z,13.60
2023-02-12T17:57:06.635Z,15.50
2023-02-12T17:59:34.746Z,14.00
2023-02-12T18:02:02.846Z,14.47
2023-02-12T18:04:33.948Z,14.87
2023-02-12T18:07:02.173Z,15.13
2023-02-12T18:09:30.373Z,15.47
2023-02-12T18:11:58.613Z,14.77
2023-02-12T18:14:26.721Z,14.97
2023-02-12T18:16:54.895Z,15.23
2023-02-12T18:19:23.015Z,15.23
2023-02-12T18:21:52.510Z,14.70
2023-02-12T18:24:20.660Z,14.37
2023-02-12T18:26:48.953Z,15.00
2023-02-12T18:29:17.093Z,14.27
2023-02-12T18:31:45.563Z,14.57
2023-02-12T18:34:13.719Z,14.13
2023-02-12T18:36:41.864Z,14.87
2023-02-12T18:39:11.336Z,14.23
2023-02-12T18:41:39.414Z,14.43
2023-02-12T18:44:07.732Z,14.17
2023-02-12T18:46:35.832Z,13.50
2023-02-12T18:49:05.320Z,13.97
2023-02-12T18:51:36.651Z,14.30
2023-02-12T18:54:07.942Z,14.17
2023-02-12T18:56:40.097Z,14.23
2023-02-12T18:59:09.320Z,13.87
2023-02-12T19:01:37.778Z,14.33
2023-02-12T19:04:09.324Z,14.10
2023-02-12T19:06:42.017Z,14.73
2023-02-12T19:09:12.218Z,14.53
2023-02-12T19:11:41.686Z,16.03
2023-02-12T19:14:09.793Z,14.67
2023-02-12T19:16:37.912Z,14.60
2023-02-12T19:19:06.261Z,13.20
2023-02-12T19:21:34.714Z,15.63
2023-02-12T19:24:04.236Z,14.27
2023-02-12T19:26:34.006Z,14.93
2023-02-12T19:29:05.185Z,15.77
2023-02-12T19:31:34.939Z,16.27
2023-02-12T19:34:04.979Z,15.63
2023-02-12T19:36:36.296Z,14.17
2023-02-12T19:39:06.172Z,15.83
2023-02-12T19:41:40.762Z,15.33
2023-02-12T19:44:12.679Z,16.20
2023-02-12T19:46:41.457Z,15.40
2023-02-12T19:49:13.676Z,16.30
2023-02-12T19:51:41.869Z,15.43
2023-02-12T19:54:11.206Z,15.70
2023-02-12T19:56:39.941Z,16.77
2023-02-12T19:59:08.875Z,15.27
2023-02-12T20:01:38.346Z,15.63
2023-02-12T20:04:06.830Z,15.50
2023-02-12T20:06:38.045Z,17.17
2023-02-12T20:09:07.665Z,17.83
2023-02-12T20:11:38.564Z,16.37
2023-02-12T20:14:08.945Z,16.80
2023-02-12T20:16:41.708Z,16.47
2023-02-12T20:19:12.956Z,17.50
2023-02-12T20:21:41.619Z,16.07
2023-02-12T20:24:09.786Z,16.93
2023-02-12T20:26:39.073Z,16.90
2023-02-12T20:29:07.186Z,15.97
2023-02-12T20:31:36.331Z,17.07
2023-02-12T20:34:08.569Z,16.47
2023-02-12T20:36:38.661Z,18.07
2023-02-12T20:39:09.062Z,16.93
2023-02-12T20:41:37.623Z,17.53
2023-02-12T20:44:07.379Z,17.30
2023-02-12T20:46:39.311Z,16.43
2023-02-12T20:49:09.263Z,16.10
2023-02-12T20:51:37.441Z,16.03
2023-02-12T20:54:05.657Z,16.23
2023-02-12T20:56:35.772Z,16.93
2023-02-12T20:59:04.182Z,15.63
2023-02-12T21:01:34.783Z,16.73
2023-02-12T21:04:05.220Z,15.53
2023-02-12T21:06:35.448Z,14.83
2023-02-12T21:09:04.220Z,16.80
2023-02-12T21:11:32.451Z,15.50
2023-02-12T21:14:20.859Z,15.90
2023-02-12T21:16:49.384Z,15.40
2023-02-12T21:19:18.102Z,15.87
2023-02-12T21:21:47.820Z,15.20
2023-02-12T21:24:17.670Z,16.10
2023-02-12T21:26:46.065Z,16.53
2023-02-12T21:29:14.674Z,16.63
2023-02-12T21:31:44.588Z,16.57
2023-02-12T21:34:15.883Z,16.37
2023-02-12T21:36:46.313Z,17.40
2023-02-12T21:39:24.414Z,15.10
2023-02-12T21:41:54.288Z,16.80
2023-02-12T21:44:23.544Z,17.23
2023-02-12T21:46:51.659Z,16.27
2023-02-12T21:49:25.035Z,16.33
2023-02-12T21:51:54.655Z,16.13
2023-02-12T21:54:24.305Z,16.80
2023-02-12T21:56:52.942Z,18.50
2023-02-12T21:59:21.189Z,16.90
2023-02-12T22:01:51.524Z,15.00
2023-02-12T22:04:20.375Z,18.20
2023-02-12T22:06:50.137Z,16.17
2023-02-12T22:09:20.551Z,16.93
2023-02-12T22:11:52.154Z,17.07
2023-02-12T22:14:21.432Z,17.20
2023-02-12T22:16:49.639Z,17.03
2023-02-12T22:19:17.787Z,17.43
2023-02-12T22:21:45.910Z,15.63
2023-02-12T22:24:16.625Z,17.20
2023-02-12T22:26:45.546Z,16.60
2023-02-12T22:29:17.360Z,16.33
2023-02-12T22:31:46.883Z,17.57
2023-02-12T22:34:17.710Z,17.07
2023-02-12T22:36:46.553Z,17.27
2023-02-12T22:39:17.562Z,16.63
2023-02-12T22:41:46.203Z,15.70
2023-02-12T22:44:17.606Z,16.50
2023-02-12T22:46:46.636Z,16.80
2023-02-12T22:49:14.910Z,16.97
2023-02-12T22:51:43.318Z,17.50
2023-02-12T22:54:14.808Z,15.70
2023-02-12T22:56:43.324Z,16.63
2023-02-12T22:59:12.711Z,18.00
2023-02-12T23:01:42.685Z,15.97
2023-02-12T23:04:15.116Z,15.30
2023-02-12T23:06:43.339Z,16.00
2023-02-12T23:09:14.357Z,16.50
2023-02-12T23:11:42.535Z,16.83
2023-02-12T23:14:10.597Z,17.30
2023-02-12T23:16:38.861Z,16.30
2023-02-12T23:19:08.424Z,16.67
2023-02-12T23:21:36.498Z,16.80
2023-02-12T23:24:04.708Z,15.73
2023-02-12T23:26:32.844Z,14.67
2023-02-12T23:29:01.093Z,16.07
2023-02-12T23:31:29.308Z,15.57
2023-02-12T23:33:57.451Z,16.43
2023-02-12T23:36:26.938Z,16.23
2023-02-12T23:38:55.037Z,15.70
2023-02-12T23:41:23.117Z,15.83
2023-02-12T23:43:51.225Z,16.87
2023-02-12T23:46:19.302Z,14.93
2023-02-12T23:48:47.390Z,15.97
2023-02-12T23:51:15.468Z,16.90
2023-02-12T23:53:44.900Z,15.43
2023-02-12T23:56:13.256Z,16.23
2023-02-12T23:58:41.330Z,15.90
